Time;durP1;ratioP1;P1;durP2;ratioP2;P2;SDS_P1;SDS_P2;PMS_P1;PMS_P2;Temp;Humidity;BMP_temperature;BMP_pressure;BME280_temperature;BME280_humidity;BME280_pressure;Samples;Min_cycle;Max_cycle;Signal;HPM_P1;HPM_P2
2023/01/13 00:01:21;;;;;;;35.50;18.70;;;6.20;99.90;;;;;;6277812;28;20488;-64
2023/01/13 00:04:25;;;;;;;33.77;21.57;;;6.10;99.90;;;;;;6278196;28;20471;-64
2023/01/13 00:07:28;;;;;;;20.10;14.10;;;6.10;99.90;;;;;;6277114;28;20528;-64
2023/01/13 00:10:34;;;;;;;17.70;13.30;;;6.00;99.90;;;;;;6277419;28;20470;-64
2023/01/13 00:13:38;;;;;;;14.40;9.50;;;6.10;99.90;;;;;;6277332;28;20616;-64
2023/01/13 00:16:42;;;;;;;12.50;10.47;;;6.10;99.90;;;;;;6277435;28;20457;-63
2023/01/13 00:19:45;;;;;;;8.67;7.70;;;6.10;99.90;;;;;;6277032;28;20805;-65
2023/01/13 00:22:48;;;;;;;8.73;7.83;;;6.00;99.90;;;;;;6277145;28;20529;-64
2023/01/13 00:25:56;;;;;;;9.20;8.30;;;6.10;99.90;;;;;;6286414;28;20539;-64
2023/01/13 00:29:00;;;;;;;8.93;8.00;;;6.00;99.90;;;;;;6293184;28;20453;-64
2023/01/13 00:32:03;;;;;;;13.23;8.43;;;6.00;99.90;;;;;;6300050;28;20472;-64
2023/01/13 00:35:08;;;;;;;10.17;9.20;;;6.00;99.90;;;;;;6276602;28;20859;-64
2023/01/13 00:38:11;;;;;;;12.83;10.47;;;6.00;99.90;;;;;;6276984;28;20477;-64
2023/01/13 00:41:18;;;;;;;11.07;10.00;;;6.00;99.90;;;;;;6277065;28;20786;-64
2023/01/13 00:44:21;;;;;;;11.03;9.93;;;6.00;99.90;;;;;;6276772;28;20941;-65
2023/01/13 00:47:24;;;;;;;15.13;9.70;;;6.00;99.90;;;;;;6276610;28;20643;-65
2023/01/13 00:50:29;;;;;;;11.30;10.20;;;6.00;99.90;;;;;;6276642;28;20474;-66
2023/01/13 00:53:35;;;;;;;19.20;10.87;;;6.00;99.90;;;;;;6276445;28;20532;-63
2023/01/13 00:56:40;;;;;;;14.43;12.60;;;6.00;99.90;;;;;;6276515;28;20481;-64
2023/01/13 00:59:44;;;;;;;11.93;10.50;;;6.00;99.90;;;;;;6275759;28;20598;-64
2023/01/13 01:02:47;;;;;;;10.00;9.03;;;6.00;99.90;;;;;;6276541;28;20485;-64
2023/01/13 01:05:51;;;;;;;12.47;9.90;;;6.00;99.90;;;;;;6275992;28;20593;-64
2023/01/13 01:08:55;;;;;;;13.33;10.23;;;6.00;99.90;;;;;;6275730;28;20489;-65
2023/01/13 01:12:01;;;;;;;10.57;9.57;;;6.00;99.90;;;;;;6274132;28;20560;-65
2023/01/13 01:15:08;;;;;;;11.47;9.60;;;5.90;99.90;;;;;;6274429;28;20481;-65
2023/01/13 01:18:12;;;;;;;13.40;9.50;;;5.90;99.90;;;;;;6268330;28;20536;-65
2023/01/13 01:21:17;;;;;;;13.97;9.33;;;5.90;99.90;;;;;;6260031;28;20471;-65
2023/01/13 01:24:20;;;;;;;10.73;9.03;;;5.90;99.90;;;;;;6256695;28;20474;-65
2023/01/13 01:27:25;;;;;;;12.03;8.10;;;5.90;99.90;;;;;;6271446;28;20477;-65
2023/01/13 01:30:29;;;;;;;15.60;9.40;;;5.90;99.90;;;;;;6262561;28;20808;-65
2023/01/13 01:33:32;;;;;;;10.63;8.93;;;5.80;99.90;;;;;;6258257;28;20501;-66
2023/01/13 01:36:36;;;;;;;10.47;8.30;;;5.80;99.90;;;;;;6260954;28;20553;-66
2023/01/13 01:39:39;;;;;;;9.20;8.30;;;5.80;99.90;;;;;;6275321;28;20474;-66
2023/01/13 01:46:05;;;;;;;8.93;7.40;;;5.80;99.90;;;;;;6275552;28;20521;-65
2023/01/13 01:49:15;;;;;;;9.63;8.17;;;5.70;99.90;;;;;;6274868;28;20679;-65
2023/01/13 01:52:23;;;;;;;9.83;8.03;;;5.80;99.90;;;;;;6275339;28;20474;-65
2023/01/13 01:55:30;;;;;;;10.40;8.20;;;5.80;99.90;;;;;;6275407;28;20925;-65
2023/01/13 01:58:44;;;;;;;9.63;8.63;;;5.80;99.90;;;;;;6275070;28;20497;-65
2023/01/13 02:01:48;;;;;;;8.43;7.63;;;5.70;99.90;;;;;;6275700;28;20478;-65
2023/01/13 02:04:55;;;;;;;8.80;8.00;;;5.70;99.90;;;;;;6278125;28;20476;-65
2023/01/13 02:07:59;;;;;;;11.30;8.37;;;5.70;99.90;;;;;;6277279;28;20492;-65
2023/01/13 02:11:03;;;;;;;14.10;8.20;;;5.70;99.90;;;;;;6275815;28;20704;-65
2023/01/13 02:14:08;;;;;;;14.30;10.00;;;5.60;99.90;;;;;;6276693;28;20458;-65
2023/01/13 02:17:24;;;;;;;9.30;7.50;;;5.60;99.90;;;;;;6276836;28;20504;-65
2023/01/13 02:20:59;;;;;;;9.53;7.33;;;5.50;99.90;;;;;;6277153;28;20982;-65
2023/01/13 02:24:53;;;;;;;12.77;8.37;;;5.60;99.90;;;;;;6275256;28;20485;-65
2023/01/13 02:28:36;;;;;;;8.90;7.30;;;5.60;99.90;;;;;;6232151;28;20474;-65
2023/01/13 02:31:43;;;;;;;9.30;8.20;;;5.60;99.90;;;;;;6240443;28;20568;-65
2023/01/13 02:34:55;;;;;;;10.33;7.83;;;5.60;99.90;;;;;;6260384;28;20450;-65
2023/01/13 02:38:01;;;;;;;10.37;8.17;;;5.70;99.90;;;;;;6274431;28;20490;-65
2023/01/13 02:44:30;;;;;;;8.17;6.90;;;5.70;99.90;;;;;;6274414;28;20470;-65
2023/01/13 02:47:39;;;;;;;9.73;7.30;;;5.80;99.90;;;;;;6274461;28;20557;-66
2023/01/13 02:50:58;;;;;;;9.67;7.23;;;5.80;99.90;;;;;;6272645;28;20478;-66
2023/01/13 02:54:04;;;;;;;9.80;7.20;;;5.80;99.90;;;;;;6273273;28;20532;-65
2023/01/13 02:57:11;;;;;;;8.20;7.40;;;5.80;99.90;;;;;;6273647;28;21096;-65
2023/01/13 03:00:16;;;;;;;10.87;7.13;;;5.80;99.90;;;;;;6273611;28;20469;-65
2023/01/13 03:03:21;;;;;;;9.00;6.57;;;5.80;99.90;;;;;;6273952;28;20470;-65
2023/01/13 03:06:39;;;;;;;8.33;6.93;;;5.90;99.90;;;;;;6274721;28;20474;-65
2023/01/13 03:09:49;;;;;;;7.90;6.33;;;5.90;99.90;;;;;;6273529;28;20494;-65
2023/01/13 03:13:00;;;;;;;7.17;6.33;;;5.90;99.90;;;;;;6274244;28;20970;-65
2023/01/13 03:16:15;;;;;;;8.40;7.17;;;5.90;99.90;;;;;;6273618;28;20474;-65
2023/01/13 03:19:31;;;;;;;8.67;7.10;;;5.90;99.90;;;;;;6275855;28;20478;-66
2023/01/13 03:22:37;;;;;;;8.50;6.33;;;6.00;99.90;;;;;;6280415;28;20946;-65
2023/01/13 03:25:48;;;;;;;8.07;7.20;;;6.00;99.90;;;;;;6282169;28;20473;-65
2023/01/13 03:28:57;;;;;;;8.37;6.40;;;5.90;99.90;;;;;;6282617;28;20488;-65
2023/01/13 03:32:06;;;;;;;8.03;7.23;;;5.90;99.90;;;;;;6282386;28;20439;-65
2023/01/13 03:35:17;;;;;;;8.50;7.40;;;5.90;99.90;;;;;;6285091;28;20515;-65
2023/01/13 03:38:26;;;;;;;7.70;6.23;;;6.00;99.90;;;;;;6281706;28;20651;-65
2023/01/13 03:41:34;;;;;;;7.03;6.23;;;5.90;99.90;;;;;;6272236;28;20489;-65
2023/01/13 03:44:44;;;;;;;8.83;7.50;;;5.90;99.90;;;;;;6257944;28;20494;-65
2023/01/13 03:47:53;;;;;;;11.73;7.43;;;5.90;99.90;;;;;;6256009;28;20505;-65
2023/01/13 03:51:05;;;;;;;8.80;6.47;;;5.90;99.90;;;;;;6253948;28;20481;-65
2023/01/13 03:54:12;;;;;;;12.20;7.40;;;5.90;99.90;;;;;;6253230;28;20498;-65
2023/01/13 03:57:19;;;;;;;7.50;6.07;;;5.90;99.90;;;;;;6252685;28;20466;-65
2023/01/13 04:00:28;;;;;;;7.40;6.70;;;5.90;99.90;;;;;;6253251;28;20467;-65
2023/01/13 04:03:36;;;;;;;8.60;7.30;;;5.80;99.90;;;;;;6252909;28;20537;-65
2023/01/13 04:06:50;;;;;;;13.47;8.87;;;5.60;99.90;;;;;;6252412;28;20487;-65
2023/01/13 04:09:56;;;;;;;9.97;7.80;;;5.60;99.90;;;;;;6252309;28;20990;-65
2023/01/13 04:13:05;;;;;;;10.20;8.47;;;5.60;99.90;;;;;;6254820;28;20490;-65
2023/01/13 04:16:10;;;;;;;7.40;6.43;;;5.60;99.90;;;;;;6252530;28;20482;-65
2023/01/13 04:19:13;;;;;;;7.73;6.93;;;5.70;99.90;;;;;;6252759;28;20563;-65
2023/01/13 04:22:18;;;;;;;10.30;8.00;;;5.70;99.90;;;;;;6252820;28;20489;-64
2023/01/13 04:25:21;;;;;;;14.83;11.60;;;5.60;99.90;;;;;;6262390;28;20952;-65
2023/01/13 04:28:26;;;;;;;14.60;10.90;;;5.50;99.90;;;;;;6302409;28;20504;-65
2023/01/13 04:31:29;;;;;;;22.43;13.53;;;5.50;99.90;;;;;;6301623;28;20477;-65
2023/01/13 04:34:32;;;;;;;18.60;14.10;;;5.50;99.90;;;;;;6302140;28;20479;-65
2023/01/13 04:37:37;;;;;;;19.90;14.10;;;5.30;99.90;;;;;;6302310;28;20473;-64
2023/01/13 04:40:41;;;;;;;19.97;14.97;;;5.40;99.90;;;;;;6302146;28;20477;-65
2023/01/13 04:43:45;;;;;;;23.33;14.67;;;5.40;99.90;;;;;;6286792;28;20900;-64
2023/01/13 04:46:48;;;;;;;18.20;14.40;;;5.40;99.90;;;;;;6278040;28;20465;-64
2023/01/13 04:49:51;;;;;;;19.27;14.53;;;5.30;99.90;;;;;;6278071;28;20945;-65
2023/01/13 04:52:56;;;;;;;20.80;13.67;;;5.30;99.90;;;;;;6278448;28;20442;-64
2023/01/13 04:56:00;;;;;;;15.80;13.87;;;5.30;99.90;;;;;;6278548;28;20448;-65
2023/01/13 04:59:03;;;;;;;16.23;13.20;;;5.20;99.90;;;;;;6277952;28;20530;-64
2023/01/13 05:02:07;;;;;;;15.63;12.97;;;5.20;99.90;;;;;;6278734;28;20797;-64
2023/01/13 05:05:11;;;;;;;15.60;12.93;;;5.20;99.90;;;;;;6278804;28;20454;-64
2023/01/13 05:08:15;;;;;;;16.93;13.03;;;5.20;99.90;;;;;;6278001;28;20467;-65
2023/01/13 05:18:00;;;;;;;18.93;13.77;;;5.20;99.90;;;;;;6276516;28;20486;-65
2023/01/13 05:21:03;;;;;;;20.67;13.63;;;5.10;99.90;;;;;;6276605;28;20470;-64
2023/01/13 05:27:30;;;;;;;16.90;14.07;;;5.00;99.90;;;;;;6300032;28;20484;-65
2023/01/13 05:30:37;;;;;;;16.60;13.63;;;5.10;99.90;;;;;;6301828;28;20469;-64
2023/01/13 05:33:40;;;;;;;17.20;14.30;;;5.00;99.90;;;;;;6301134;28;20477;-64
2023/01/13 05:36:43;;;;;;;17.90;14.37;;;5.00;99.90;;;;;;6300758;28;20983;-65
2023/01/13 05:43:20;;;;;;;19.07;13.77;;;5.00;99.90;;;;;;6290319;28;20467;-64
2023/01/13 05:46:24;;;;;;;18.40;15.20;;;5.10;99.90;;;;;;6275642;28;20470;-64
2023/01/13 05:49:27;;;;;;;16.07;12.93;;;5.10;99.90;;;;;;6275012;28;20550;-64
2023/01/13 05:52:30;;;;;;;16.57;14.80;;;5.20;99.90;;;;;;6275197;28;20532;-64
2023/01/13 05:55:35;;;;;;;21.60;13.70;;;5.20;99.90;;;;;;6275370;28;20856;-64
2023/01/13 05:58:39;;;;;;;21.63;14.23;;;5.20;99.90;;;;;;6274938;28;20481;-65
2023/01/13 06:01:42;;;;;;;18.43;14.57;;;5.20;99.90;;;;;;6275103;28;20485;-65
2023/01/13 06:04:45;;;;;;;20.23;14.53;;;5.10;99.90;;;;;;6274639;28;20478;-65
2023/01/13 06:07:49;;;;;;;18.93;12.87;;;5.10;99.90;;;;;;6274613;28;20478;-65
2023/01/13 06:10:54;;;;;;;15.67;12.97;;;5.00;99.90;;;;;;6275063;28;20449;-65
2023/01/13 06:13:57;;;;;;;16.70;13.80;;;5.00;99.90;;;;;;6275044;28;20886;-65
2023/01/13 06:17:00;;;;;;;15.90;13.73;;;5.00;99.90;;;;;;6274963;28;20450;-65
2023/01/13 06:20:07;;;;;;;19.47;15.07;;;4.90;99.90;;;;;;6274817;28;20519;-65
2023/01/13 06:23:11;;;;;;;17.00;15.30;;;4.90;99.90;;;;;;6275036;28;20474;-65
2023/01/13 06:26:20;;;;;;;24.20;15.33;;;5.00;99.90;;;;;;6287013;28;20614;-65
2023/01/13 06:29:23;;;;;;;16.00;13.17;;;5.00;99.90;;;;;;6299700;28;20481;-65
2023/01/13 06:32:30;;;;;;;20.67;14.23;;;4.90;99.90;;;;;;6299144;28;20469;-65
2023/01/13 06:35:36;;;;;;;21.73;14.93;;;4.90;99.90;;;;;;6299448;28;20488;-65
2023/01/13 06:38:44;;;;;;;17.60;12.43;;;5.00;99.90;;;;;;6299727;28;20477;-66
2023/01/13 06:45:13;;;;;;;14.43;12.80;;;5.10;99.90;;;;;;6249954;28;20471;-65
2023/01/13 06:48:18;;;;;;;15.60;12.57;;;5.10;99.90;;;;;;6249155;28;20819;-65
2023/01/13 06:51:22;;;;;;;13.23;11.10;;;5.10;99.90;;;;;;6249715;28;20494;-65
2023/01/13 06:54:25;;;;;;;15.73;11.67;;;5.10;99.90;;;;;;6248876;28;20919;-65
2023/01/13 06:57:31;;;;;;;19.13;13.30;;;5.20;99.90;;;;;;6254596;28;20474;-65
2023/01/13 07:00:36;;;;;;;19.83;12.80;;;5.20;99.90;;;;;;6254670;28;20489;-65
2023/01/13 07:03:40;;;;;;;15.33;11.00;;;5.30;99.90;;;;;;6254018;28;20471;-65
2023/01/13 07:06:44;;;;;;;14.20;10.97;;;5.30;99.90;;;;;;6256532;28;20568;-65
2023/01/13 07:09:47;;;;;;;13.40;12.00;;;5.30;99.90;;;;;;6257038;28;20502;-65
2023/01/13 07:16:12;;;;;;;19.43;12.60;;;5.40;99.90;;;;;;6254349;28;20475;-65
2023/01/13 07:19:22;;;;;;;15.87;12.87;;;5.50;99.90;;;;;;6254364;28;20502;-65
2023/01/13 07:22:25;;;;;;;16.03;11.17;;;5.60;99.90;;;;;;6253414;28;20490;-65
2023/01/13 07:25:28;;;;;;;19.23;13.07;;;5.60;99.90;;;;;;6265594;28;20580;-65
2023/01/13 07:28:33;;;;;;;15.83;12.37;;;5.70;99.90;;;;;;6303329;28;20477;-65
2023/01/13 07:31:37;;;;;;;15.93;11.30;;;5.80;99.90;;;;;;6303293;28;20484;-65
2023/01/13 07:34:41;;;;;;;11.20;10.03;;;5.90;99.90;;;;;;6303319;28;20483;-66
2023/01/13 07:37:44;;;;;;;14.60;10.47;;;5.90;99.90;;;;;;6303189;28;21107;-65
2023/01/13 07:40:48;;;;;;;11.67;10.27;;;6.00;99.90;;;;;;6303224;28;20469;-64
2023/01/13 07:43:52;;;;;;;15.80;12.23;;;6.00;99.90;;;;;;6286860;28;20454;-64
2023/01/13 07:46:55;;;;;;;13.80;11.40;;;6.10;99.90;;;;;;6278091;28;20438;-64
2023/01/13 07:49:58;;;;;;;13.13;11.20;;;6.10;99.90;;;;;;6277566;28;20497;-64
2023/01/13 07:53:01;;;;;;;15.80;10.40;;;6.10;99.90;;;;;;6278014;28;20463;-65
2023/01/13 07:56:06;;;;;;;15.30;11.27;;;6.10;99.90;;;;;;6273816;28;20898;-65
2023/01/13 07:59:11;;;;;;;12.83;10.30;;;6.10;99.90;;;;;;6277522;28;20928;-65
2023/01/13 08:02:14;;;;;;;11.83;10.47;;;6.20;99.90;;;;;;6261045;28;20466;-65
2023/01/13 08:05:18;;;;;;;13.80;12.07;;;6.20;99.90;;;;;;6258374;28;20841;-65
2023/01/13 08:08:21;;;;;;;14.33;11.30;;;6.30;99.90;;;;;;6263514;28;20525;-65
2023/01/13 08:11:25;;;;;;;12.77;11.47;;;6.40;99.90;;;;;;6261339;28;20514;-65
2023/01/13 08:14:29;;;;;;;12.37;10.40;;;6.50;99.90;;;;;;6277559;28;20520;-65
2023/01/13 08:17:33;;;;;;;14.80;10.03;;;6.60;99.90;;;;;;6271369;28;20462;-65
2023/01/13 08:20:36;;;;;;;16.30;11.43;;;6.70;99.90;;;;;;6255491;28;20932;-65
2023/01/13 08:23:40;;;;;;;15.33;11.07;;;6.70;99.90;;;;;;6269447;28;20482;-64
2023/01/13 08:26:43;;;;;;;11.50;10.40;;;6.70;99.90;;;;;;6274005;28;20470;-65
2023/01/13 08:29:48;;;;;;;12.60;10.40;;;6.70;99.90;;;;;;6259286;28;20474;-64
2023/01/13 08:32:51;;;;;;;20.67;13.60;;;6.70;99.90;;;;;;6276573;28;20847;-64
2023/01/13 08:35:55;;;;;;;20.23;17.97;;;6.70;99.90;;;;;;6276693;28;20480;-62
2023/01/13 08:38:58;;;;;;;19.80;17.30;;;6.80;99.90;;;;;;6277366;28;20466;-65
2023/01/13 08:42:01;;;;;;;19.07;17.30;;;6.90;99.90;;;;;;6276209;28;20910;-64
2023/01/13 08:45:08;;;;;;;18.20;14.00;;;6.90;99.90;;;;;;6277046;28;20493;-65
2023/01/13 08:48:11;;;;;;;12.97;11.77;;;7.10;99.90;;;;;;6273773;28;20482;-65
2023/01/13 08:51:14;;;;;;;12.47;9.87;;;7.30;99.90;;;;;;6264649;28;20499;-64
2023/01/13 08:54:18;;;;;;;13.13;9.93;;;7.40;99.90;;;;;;6265340;28;20497;-64
2023/01/13 08:57:22;;;;;;;12.20;10.40;;;7.60;99.90;;;;;;6261899;28;20463;-64
2023/01/13 09:00:27;;;;;;;11.00;9.90;;;7.90;99.90;;;;;;6264145;28;20467;-64
2023/01/13 09:03:30;;;;;;;9.40;8.00;;;8.10;99.90;;;;;;6253649;28;20813;-64
2023/01/13 09:06:34;;;;;;;10.07;8.97;;;8.30;99.90;;;;;;6261497;28;20577;-64
2023/01/13 09:09:38;;;;;;;13.30;9.40;;;8.60;99.90;;;;;;6263444;28;20621;-65
2023/01/13 09:16:03;;;;;;;8.67;7.87;;;9.10;99.90;;;;;;6268804;28;20477;-63
2023/01/13 09:19:07;;;;;;;10.20;8.47;;;9.40;99.90;;;;;;6276141;28;20474;-64
2023/01/13 09:22:13;;;;;;;9.90;8.17;;;9.70;99.60;;;;;;6276305;28;20577;-63
2023/01/13 09:25:17;;;;;;;11.50;8.40;;;9.90;98.90;;;;;;6261863;28;20473;-64
2023/01/13 09:28:20;;;;;;;8.53;7.67;;;10.00;97.90;;;;;;6265096;28;20481;-64
2023/01/13 09:31:25;;;;;;;10.80;8.73;;;10.10;97.60;;;;;;6275394;28;20469;-64
2023/01/13 09:37:49;;;;;;;11.80;8.03;;;10.00;96.60;;;;;;6250523;28;20803;-64
2023/01/13 09:40:54;;;;;;;9.70;7.00;;;10.10;96.50;;;;;;6251095;28;20458;-64
2023/01/13 09:44:00;;;;;;;8.80;7.53;;;10.20;96.10;;;;;;6266589;28;20757;-64
2023/01/13 09:47:12;;;;;;;10.83;7.50;;;10.40;96.20;;;;;;6275189;28;20431;-64
2023/01/13 09:50:23;;;;;;;11.70;8.40;;;10.60;95.80;;;;;;6274684;28;21029;-63
2023/01/13 09:53:30;;;;;;;8.90;7.67;;;10.70;95.40;;;;;;6275214;28;20477;-63
2023/01/13 09:56:34;;;;;;;10.30;9.00;;;10.80;95.00;;;;;;6275129;28;20501;-63
2023/01/13 09:59:37;;;;;;;15.90;7.90;;;10.80;94.80;;;;;;6274430;28;20474;-63
2023/01/13 10:03:14;;;;;;;13.00;8.77;;;10.70;94.80;;;;;;6275507;28;20480;-63
2023/01/13 10:06:20;;;;;;;10.10;7.40;;;10.60;94.70;;;;;;6261156;28;20865;-63
2023/01/13 10:09:30;;;;;;;9.30;8.30;;;10.60;95.00;;;;;;6274536;28;20478;-63
2023/01/13 10:16:07;;;;;;;14.43;7.53;;;10.50;94.70;;;;;;6254246;28;20482;-63
2023/01/13 10:19:18;;;;;;;13.47;7.63;;;10.50;94.70;;;;;;6261109;28;20474;-63
2023/01/13 10:22:46;;;;;;;11.80;6.60;;;10.50;94.70;;;;;;6259660;28;20478;-63
2023/01/13 10:25:58;;;;;;;7.93;6.13;;;10.50;94.30;;;;;;6261132;28;20474;-63
2023/01/13 10:29:02;;;;;;;14.77;7.20;;;10.50;94.10;;;;;;6263031;28;20466;-63
2023/01/13 10:32:05;;;;;;;8.70;5.53;;;10.60;93.90;;;;;;6262118;28;20474;-64
2023/01/13 10:35:10;;;;;;;7.47;5.13;;;10.60;93.60;;;;;;6262835;28;20442;-63
2023/01/13 10:38:17;;;;;;;9.83;6.23;;;10.60;93.10;;;;;;6263318;28;20544;-64
2023/01/13 10:41:25;;;;;;;9.57;6.50;;;10.70;92.90;;;;;;6264701;28;20473;-64
2023/01/13 10:44:29;;;;;;;9.50;6.60;;;10.80;93.10;;;;;;6264483;28;20804;-63
2023/01/13 10:47:34;;;;;;;19.60;13.93;;;10.80;93.10;;;;;;6259852;28;20475;-63
2023/01/13 10:50:40;;;;;;;16.67;10.67;;;10.90;94.00;;;;;;6262572;28;20620;-64
2023/01/13 10:53:47;;;;;;;16.70;10.37;;;10.70;94.70;;;;;;6272363;28;20474;-63
2023/01/13 10:57:10;;;;;;;14.20;10.43;;;10.80;94.40;;;;;;6265083;28;20467;-65
2023/01/13 11:00:27;;;;;;;14.90;12.70;;;10.70;94.50;;;;;;6257054;28;20466;-63
2023/01/13 11:03:43;;;;;;;11.50;9.97;;;10.70;94.60;;;;;;6273938;28;20485;-63
2023/01/13 11:06:47;;;;;;;15.97;12.33;;;10.60;94.70;;;;;;6273970;28;20474;-62
2023/01/13 11:10:10;;;;;;;19.50;15.73;;;10.60;95.30;;;;;;6264694;28;20486;-63
2023/01/13 11:13:16;;;;;;;21.00;15.30;;;10.30;95.70;;;;;;6273938;28;20483;-64
2023/01/13 11:16:20;;;;;;;20.27;14.53;;;10.30;96.10;;;;;;6273949;28;20481;-63
2023/01/13 11:19:26;;;;;;;19.43;14.03;;;10.20;96.60;;;;;;6273841;28;20558;-62
2023/01/13 11:22:37;;;;;;;15.73;13.10;;;10.80;97.00;;;;;;6273857;28;20813;-64
2023/01/13 11:25:43;;;;;;;17.27;13.10;;;12.50;95.10;;;;;;6277358;28;20466;-63
2023/01/13 11:28:55;;;;;;;18.83;12.90;;;14.80;91.60;;;;;;6273468;28;20808;-63
2023/01/13 11:32:09;;;;;;;17.07;11.00;;;16.60;86.40;;;;;;6273609;28;20490;-63
2023/01/13 11:35:18;;;;;;;15.33;9.83;;;17.80;76.40;;;;;;6254784;28;20455;-63
2023/01/13 11:38:33;;;;;;;9.80;8.80;;;17.80;70.30;;;;;;6249243;28;20809;-63
2023/01/13 11:41:43;;;;;;;12.90;9.90;;;17.70;67.00;;;;;;6253673;28;20467;-63
2023/01/13 11:44:53;;;;;;;12.00;9.40;;;19.60;64.60;;;;;;6276309;28;20816;-64
2023/01/13 11:48:00;;;;;;;12.53;9.27;;;21.20;54.90;;;;;;6277849;28;20562;-63
2023/01/13 11:51:11;;;;;;;13.90;9.27;;;21.50;50.70;;;;;;6277564;28;20238;-64
2023/01/13 11:54:32;;;;;;;15.60;9.20;;;21.60;48.80;;;;;;6277406;28;20238;-64
2023/01/13 11:57:51;;;;;;;15.40;9.40;;;22.00;47.40;;;;;;6277923;28;20307;-63
2023/01/13 12:01:25;;;;;;;11.87;9.27;;;22.90;45.30;;;;;;6277367;28;20710;-62
2023/01/13 12:04:36;;;;;;;12.93;9.23;;;24.60;42.00;;;;;;6277422;28;20228;-64
2023/01/13 12:07:48;;;;;;;14.37;9.03;;;26.00;38.60;;;;;;6277419;28;20244;-64
2023/01/13 12:11:01;;;;;;;15.00;10.43;;;26.70;36.10;;;;;;6273261;28;20231;-64
2023/01/13 12:14:19;;;;;;;12.87;10.30;;;26.90;34.60;;;;;;6277812;28;20506;-63
2023/01/13 12:17:30;;;;;;;11.20;9.07;;;26.00;34.40;;;;;;6277200;28;20239;-63
2023/01/13 12:20:43;;;;;;;11.00;8.40;;;24.70;35.20;;;;;;6277096;28;20235;-62
2023/01/13 12:23:55;;;;;;;17.80;9.53;;;23.30;36.10;;;;;;6277877;28;20238;-64
2023/01/13 12:27:04;;;;;;;9.97;8.50;;;21.90;37.40;;;;;;6280569;28;20437;-64
2023/01/13 12:30:22;;;;;;;13.20;8.90;;;20.80;39.90;;;;;;6276698;28;20234;-63
2023/01/13 12:33:35;;;;;;;10.77;7.27;;;19.80;40.30;;;;;;6277038;28;20228;-63
2023/01/13 12:36:51;;;;;;;12.67;8.70;;;18.80;41.70;;;;;;6277212;28;20568;-64
2023/01/13 12:40:11;;;;;;;10.87;7.83;;;18.00;43.20;;;;;;6276473;28;20491;-63
2023/01/13 12:46:52;;;;;;;10.13;8.27;;;16.80;46.20;;;;;;6252068;28;20475;-63
2023/01/13 12:50:33;;;;;;;15.17;9.53;;;16.20;47.30;;;;;;6251693;28;20498;-63
2023/01/13 12:53:37;;;;;;;17.00;11.07;;;15.80;49.00;;;;;;6251671;28;20470;-63
2023/01/13 12:56:43;;;;;;;8.40;6.80;;;15.50;50.00;;;;;;6252176;28;20475;-64
2023/01/13 13:00:19;;;;;;;10.37;8.40;;;15.40;50.60;;;;;;6255349;28;20466;-64
2023/01/13 13:03:34;;;;;;;12.30;7.70;;;15.20;50.80;;;;;;6276158;28;20470;-63
2023/01/13 13:06:38;;;;;;;16.53;8.80;;;15.10;51.20;;;;;;6276288;28;20486;-63
2023/01/13 13:09:48;;;;;;;22.60;13.30;;;14.90;51.40;;;;;;6275786;28;20578;-63
2023/01/13 13:13:18;;;;;;;13.80;9.50;;;14.60;52.30;;;;;;6275896;28;20485;-63
2023/01/13 13:16:53;;;;;;;19.83;9.20;;;14.40;52.90;;;;;;6276121;28;20466;-63
2023/01/13 13:19:57;;;;;;;14.93;10.10;;;14.10;53.50;;;;;;6276174;28;20461;-63
2023/01/13 13:23:00;;;;;;;22.30;13.83;;;13.80;55.10;;;;;;6275882;28;20445;-62
2023/01/13 13:26:14;;;;;;;21.90;15.13;;;13.50;56.10;;;;;;6279474;28;20438;-63
2023/01/13 13:29:39;;;;;;;22.93;13.23;;;13.40;57.50;;;;;;6275082;28;20484;-65
2023/01/13 13:33:08;;;;;;;17.80;12.90;;;13.00;59.70;;;;;;6275398;28;20475;-63
2023/01/13 13:36:34;;;;;;;19.33;10.73;;;12.70;62.00;;;;;;6275377;28;20549;-63
2023/01/13 13:49:52;;;;;;;23.53;10.80;;;11.80;67.10;;;;;;6249855;28;20494;-65
2023/01/13 13:53:04;;;;;;;18.20;9.10;;;11.70;68.30;;;;;;6250380;28;20742;-64
2023/01/13 13:56:16;;;;;;;15.83;10.17;;;11.60;69.40;;;;;;6250879;28;20451;-64
2023/01/13 13:59:23;;;;;;;15.27;9.00;;;11.50;70.50;;;;;;6250217;28;20486;-64
2023/01/13 14:02:29;;;;;;;17.77;8.33;;;11.30;71.50;;;;;;6249057;28;20470;-64
2023/01/13 14:05:36;;;;;;;12.70;9.40;;;11.30;72.10;;;;;;6248707;28;20478;-63
2023/01/13 14:08:43;;;;;;;14.97;9.00;;;11.10;73.20;;;;;;6249149;28;20467;-64
2023/01/13 14:11:57;;;;;;;16.77;9.73;;;11.00;74.30;;;;;;6249073;28;20835;-63
2023/01/13 14:15:00;;;;;;;12.30;9.30;;;11.00;75.10;;;;;;6249609;28;20975;-63
2023/01/13 14:18:06;;;;;;;16.20;10.07;;;11.00;75.50;;;;;;6249369;28;20540;-63
2023/01/13 14:21:20;;;;;;;12.80;8.67;;;11.00;77.00;;;;;;6241636;28;20459;-63
2023/01/13 14:24:24;;;;;;;15.23;11.10;;;10.90;78.40;;;;;;6250560;28;20478;-63
2023/01/13 14:27:28;;;;;;;16.90;9.50;;;10.80;79.70;;;;;;6275898;28;20564;-63
2023/01/13 14:30:33;;;;;;;13.97;9.60;;;10.80;81.30;;;;;;6274856;28;20470;-63
2023/01/13 14:33:38;;;;;;;14.00;11.00;;;10.80;82.30;;;;;;6273566;28;20474;-63
2023/01/13 14:36:46;;;;;;;17.60;13.13;;;10.70;83.60;;;;;;6274889;28;20478;-63
2023/01/13 14:39:50;;;;;;;13.53;9.70;;;10.60;84.70;;;;;;6274641;28;20548;-64
2023/01/13 14:42:58;;;;;;;11.80;8.70;;;10.60;85.50;;;;;;6274083;28;20462;-63
2023/01/13 14:46:02;;;;;;;14.50;10.50;;;10.50;86.40;;;;;;6273950;28;20489;-63
2023/01/13 14:49:13;;;;;;;11.27;7.87;;;10.50;87.40;;;;;;6250919;28;20479;-64
2023/01/13 14:52:22;;;;;;;14.97;7.60;;;10.50;87.90;;;;;;6249588;28;20490;-64
2023/01/13 14:55:29;;;;;;;11.00;9.13;;;10.40;88.70;;;;;;6249651;28;20813;-63
2023/01/13 14:58:32;;;;;;;10.23;7.50;;;10.40;89.30;;;;;;6249458;28;20810;-63
2023/01/13 15:01:38;;;;;;;17.47;9.13;;;10.30;90.10;;;;;;6267629;28;20478;-64
2023/01/13 15:04:41;;;;;;;13.20;8.90;;;10.20;90.40;;;;;;6274101;28;20519;-64
2023/01/13 15:07:52;;;;;;;11.83;8.40;;;10.20;90.90;;;;;;6273805;28;20480;-64
2023/01/13 15:10:59;;;;;;;10.30;7.20;;;10.10;91.10;;;;;;6274076;28;20477;-64
2023/01/13 15:14:09;;;;;;;14.47;7.37;;;10.10;91.50;;;;;;6275703;28;20466;-63
2023/01/13 15:17:17;;;;;;;13.57;8.00;;;10.00;91.80;;;;;;6279144;28;20529;-63
2023/01/13 15:20:23;;;;;;;14.00;7.43;;;9.90;92.70;;;;;;6279086;28;20488;-64
2023/01/13 15:23:27;;;;;;;11.70;7.77;;;9.80;92.90;;;;;;6276687;28;20469;-64
2023/01/13 15:26:33;;;;;;;8.47;7.43;;;9.80;93.20;;;;;;6285898;28;20485;-63
2023/01/13 15:29:37;;;;;;;9.87;7.40;;;9.80;93.60;;;;;;6279266;28;20544;-64
2023/01/13 15:32:40;;;;;;;9.13;7.70;;;9.80;93.70;;;;;;6278691;28;20478;-64
2023/01/13 15:35:46;;;;;;;11.60;7.60;;;9.70;93.90;;;;;;6278526;28;20496;-63
2023/01/13 15:38:50;;;;;;;15.83;9.97;;;9.70;94.00;;;;;;6278292;28;20469;-64
2023/01/13 15:48:35;;;;;;;8.83;6.40;;;9.60;93.80;;;;;;6277952;28;20493;-64
2023/01/13 15:51:39;;;;;;;15.50;7.43;;;9.60;93.90;;;;;;6270969;28;20480;-64
2023/01/13 15:54:44;;;;;;;11.60;7.70;;;9.60;94.00;;;;;;6261656;28;20466;-64
2023/01/13 15:57:49;;;;;;;13.07;9.17;;;9.50;94.20;;;;;;6269078;28;20470;-64
2023/01/13 16:00:53;;;;;;;12.73;8.97;;;9.20;94.70;;;;;;6265846;28;20475;-65
2023/01/13 16:03:56;;;;;;;13.17;9.30;;;9.10;95.10;;;;;;6254172;28;20807;-65
2023/01/13 16:07:00;;;;;;;12.03;8.50;;;9.10;95.20;;;;;;6254646;28;20970;-65
2023/01/13 16:10:07;;;;;;;12.67;8.90;;;9.10;95.40;;;;;;6253415;28;20467;-64
2023/01/13 16:13:10;;;;;;;8.83;7.10;;;9.10;95.60;;;;;;6252786;28;20483;-64
2023/01/13 16:16:19;;;;;;;10.70;8.57;;;9.20;95.60;;;;;;6252929;28;20471;-64
2023/01/13 16:19:22;;;;;;;12.20;8.80;;;9.10;95.80;;;;;;6252747;28;20483;-64
2023/01/13 16:22:26;;;;;;;11.23;8.93;;;9.20;95.90;;;;;;6252724;28;20470;-64
2023/01/13 16:25:30;;;;;;;11.90;9.00;;;9.20;96.00;;;;;;6261229;28;20473;-64
2023/01/13 16:28:34;;;;;;;14.67;9.20;;;9.10;96.10;;;;;;6272094;28;20783;-64
2023/01/13 16:31:38;;;;;;;12.40;9.07;;;9.20;96.20;;;;;;6277040;28;20484;-64
2023/01/13 16:34:42;;;;;;;14.70;9.73;;;9.20;96.30;;;;;;6276694;28;20945;-64
2023/01/13 16:37:47;;;;;;;10.33;7.47;;;9.10;96.40;;;;;;6276199;28;20482;-64
2023/01/13 16:40:52;;;;;;;10.07;8.10;;;9.10;96.50;;;;;;6267376;28;20474;-64
2023/01/13 16:43:55;;;;;;;11.07;9.43;;;9.20;96.60;;;;;;6268260;28;20455;-64
2023/01/13 16:46:58;;;;;;;17.00;12.20;;;9.10;96.70;;;;;;6263515;28;20457;-64
2023/01/13 16:50:02;;;;;;;14.10;9.60;;;9.10;96.70;;;;;;6259253;28;20993;-64
2023/01/13 16:53:08;;;;;;;15.90;12.30;;;9.10;96.90;;;;;;6262317;28;20493;-64
2023/01/13 16:56:24;;;;;;;18.43;11.60;;;9.10;97.00;;;;;;6267823;28;20423;-64
2023/01/13 16:59:28;;;;;;;11.83;10.63;;;9.10;97.10;;;;;;6264062;28;20470;-64
2023/01/13 17:02:31;;;;;;;15.27;10.93;;;9.10;97.20;;;;;;6272054;28;20462;-64
2023/01/13 17:05:38;;;;;;;16.13;14.47;;;9.10;97.30;;;;;;6261881;28;20470;-64